Time;durP1;ratioP1;P1;durP2;ratioP2;P2;SDS_P1;SDS_P2;PMS_P1;PMS_P2;Temp;Humidity;BMP_temperature;BMP_pressure;BME280_temperature;BME280_humidity;BME280_pressure;Samples;Min_cycle;Max_cycle;Signal;HPM_P1;HPM_P2
2021/08/26 00:00:58;;;;;;;;;16.00;14.75;;;;;30.43;30.44;100531.28;144167;593;132011;-67
2021/08/26 00:06:25;;;;;;;;;11.50;11.50;;;;;30.52;29.87;100530.25;144156;612;131020;-69
2021/08/26 00:08:59;;;;;;;;;13.75;13.75;;;;;30.55;29.82;100538.00;144151;582;132012;-70
2021/08/26 00:11:33;;;;;;;;;16.00;14.75;;;;;30.65;29.66;100529.66;144172;751;132010;-69
2021/08/26 00:14:07;;;;;;;;;16.00;16.00;;;;;30.61;29.64;100527.47;144143;585;132014;-68
2021/08/26 00:16:41;;;;;;;;;10.25;10.25;;;;;30.69;29.46;100530.12;144170;596;131022;-69
2021/08/26 00:19:18;;;;;;;;;15.25;14.00;;;;;30.71;29.43;100522.66;144144;573;132014;-69
2021/08/26 00:21:52;;;;;;;;;17.00;16.00;;;;;30.81;29.21;100523.28;144171;612;132010;-68
2021/08/26 00:24:26;;;;;;;;;16.50;15.50;;;;;30.75;29.27;100513.16;144163;609;132915;-67
2021/08/26 00:27:00;;;;;;;;;17.00;15.00;;;;;30.81;29.11;100523.28;144168;728;132010;-68
2021/08/26 00:29:34;;;;;;;;;14.50;14.50;;;;;30.81;29.01;100523.28;144148;591;132915;-68
2021/08/26 00:32:09;;;;;;;;;13.00;13.00;;;;;30.85;29.28;100524.59;144148;689;132012;-67
2021/08/26 00:34:43;;;;;;;;;14.75;12.00;;;;;30.87;29.08;100524.41;144148;595;132915;-68
2021/08/26 00:37:17;;;;;;;;;14.00;13.25;;;;;30.87;29.12;100517.12;144171;583;132010;-67
2021/08/26 00:39:51;;;;;;;;;12.25;12.25;;;;;30.92;29.23;100521.16;144146;583;132018;-67
2021/08/26 00:42:26;;;;;;;;;13.50;13.50;;;;;30.98;29.26;100520.44;144175;593;132010;-68
2021/08/26 00:44:59;;;;;;;;;12.75;11.25;;;;;31.12;29.07;100526.97;144146;566;133018;-68
2021/08/26 00:47:33;;;;;;;;;16.00;15.75;;;;;31.21;28.57;100531.28;144178;564;132010;-68
2021/08/26 00:50:08;;;;;;;;;14.00;14.00;;;;;31.26;28.93;100525.31;144160;590;132915;-69
2021/08/26 00:52:46;;;;;;;;;14.25;12.25;;;;;31.29;28.42;100530.34;144170;615;131020;-68
2021/08/26 00:55:19;;;;;;;;;13.25;13.25;;;;;31.29;28.38;100533.06;144152;597;132915;-69
2021/08/26 00:57:54;;;;;;;;;13.50;13.25;;;;;31.04;29.06;100533.28;144157;618;132010;-71
2021/08/26 01:00:27;;;;;;;;;15.25;15.25;;;;;30.89;29.42;100535.91;144151;593;132915;-69
2021/08/26 01:03:14;;;;;;;;;16.00;13.50;;;;;30.68;29.75;100526.56;144172;578;131020;-67
2021/08/26 01:05:58;;;;;;;;;14.00;13.00;;;;;30.53;30.00;100521.06;144145;563;132020;-69
2021/08/26 01:09:09;;;;;;;;;18.00;16.75;;;;;30.24;31.08;100507.31;144167;592;131020;-67
2021/08/26 01:11:46;;;;;;;;;16.00;16.00;;;;;30.38;30.55;100514.72;144148;578;132018;-67
2021/08/26 01:14:21;;;;;;;;;16.50;15.75;;;;;30.21;30.79;100517.50;144171;616;132010;-67
2021/08/26 01:16:55;;;;;;;;;14.25;13.50;;;;;30.15;30.63;100517.34;144161;565;132915;-67
2021/08/26 01:19:39;;;;;;;;;13.75;13.25;;;;;30.21;30.62;100512.09;144168;598;132010;-68
2021/08/26 01:22:13;;;;;;;;;17.25;17.00;;;;;30.16;31.12;100514.47;144148;601;132913;-68
2021/08/26 01:24:49;;;;;;;;;17.25;16.25;;;;;30.15;31.09;100512.78;144149;569;132010;-69
2021/08/26 01:27:24;;;;;;;;;17.50;14.50;;;;;30.08;31.41;100506.38;144152;689;131913;-69
2021/08/26 01:30:02;;;;;;;;;14.75;13.25;;;;;30.01;31.77;100508.13;144163;590;133023;-67
2021/08/26 01:32:36;;;;;;;;;13.00;13.00;;;;;30.07;31.71;100504.69;144149;685;131939;-67
2021/08/26 01:35:12;;;;;;;;;14.50;12.25;;;;;30.10;31.42;100517.03;144162;569;132012;-68
2021/08/26 01:37:46;;;;;;;;;16.50;15.75;;;;;30.08;31.30;100528.03;144146;566;132015;-69
2021/08/26 01:40:20;;;;;;;;;15.50;14.00;;;;;30.11;31.22;100532.25;144170;636;132012;-68
2021/08/26 01:42:54;;;;;;;;;16.50;13.25;;;;;29.99;31.47;100532.66;144161;569;132913;-72
2021/08/26 01:45:28;;;;;;;;;14.25;12.50;;;;;29.95;31.52;100527.75;144166;564;132013;-72
2021/08/26 01:48:02;;;;;;;;;14.50;14.50;;;;;30.02;31.25;100536.88;144143;656;132014;-71
2021/08/26 01:50:36;;;;;;;;;12.25;12.25;;;;;30.13;31.03;100539.19;144151;613;132012;-67
2021/08/26 01:53:09;;;;;;;;;19.00;14.00;;;;;30.15;30.86;100534.44;144152;606;132913;-67
2021/08/26 01:55:47;;;;;;;;;14.50;14.50;;;;;30.17;30.79;100537.81;144166;584;132012;-67
2021/08/26 01:58:20;;;;;;;;;13.75;12.50;;;;;30.19;30.44;100545.75;144149;644;131020;-67
2021/08/26 02:00:54;;;;;;;;;14.50;13.25;;;;;30.09;31.20;100539.72;144169;578;131998;-67
2021/08/26 02:03:28;;;;;;;;;17.25;16.00;;;;;30.20;31.42;100548.28;144155;563;132042;-68
2021/08/26 02:06:02;;;;;;;;;12.75;12.75;;;;;30.04;32.71;100548.34;144171;626;132010;-68
2021/08/26 02:08:36;;;;;;;;;17.25;16.25;;;;;30.06;33.49;100546.34;144160;611;132012;-66
2021/08/26 02:11:10;;;;;;;;;15.50;14.25;;;;;29.99;33.50;100550.75;144167;578;132010;-67
2021/08/26 02:13:43;;;;;;;;;14.25;14.25;;;;;30.29;32.89;100540.12;144150;612;132012;-67
2021/08/26 02:16:18;;;;;;;;;16.00;15.00;;;;;30.42;33.26;100540.41;144154;618;131021;-68
2021/08/26 02:18:51;;;;;;;;;13.50;13.50;;;;;30.47;32.97;100542.59;144147;571;132020;-68
2021/08/26 02:21:28;;;;;;;;;20.75;17.00;;;;;30.42;33.71;100547.69;144169;587;132012;-68
2021/08/26 02:24:01;;;;;;;;;15.00;15.00;;;;;30.38;33.42;100539.06;144147;592;131914;-68
2021/08/26 02:26:36;;;;;;;;;18.25;17.50;;;;;30.43;33.49;100539.41;144173;596;132010;-68
2021/08/26 02:29:10;;;;;;;;;16.00;16.00;;;;;29.90;34.50;100535.56;144150;584;132913;-67
2021/08/26 02:31:43;;;;;;;;;10.50;10.25;;;;;29.74;35.48;100531.00;144167;597;132012;-67
2021/08/26 02:34:17;;;;;;;;;14.75;14.75;;;;;29.94;35.08;100532.31;144155;591;132018;-68
2021/08/26 02:36:51;;;;;;;;;18.50;15.00;;;;;29.93;35.14;100535.22;144169;574;132010;-67
2021/08/26 02:39:25;;;;;;;;;18.50;18.00;;;;;29.84;35.49;100537.91;144149;607;132019;-68
2021/08/26 02:41:59;;;;;;;;;14.25;14.25;;;;;29.77;35.39;100536.94;144147;580;132012;-68
2021/08/26 02:44:33;;;;;;;;;17.50;16.25;;;;;29.98;35.12;100538.25;144153;564;131036;-67
2021/08/26 02:47:07;;;;;;;;;15.25;15.25;;;;;29.95;35.10;100547.56;144168;589;131021;-67
2021/08/26 02:49:41;;;;;;;;;15.25;15.00;;;;;30.08;34.42;100547.00;144149;575;132913;-69
2021/08/26 02:52:15;;;;;;;;;17.25;16.75;;;;;30.12;34.36;100555.63;144170;618;132012;-69
2021/08/26 02:54:49;;;;;;;;;16.75;16.50;;;;;30.18;33.74;100572.00;144145;565;132014;-69
2021/08/26 02:57:23;;;;;;;;;16.00;14.00;;;;;30.16;33.88;100568.63;144171;576;132012;-69
2021/08/26 02:59:56;;;;;;;;;18.50;15.75;;;;;30.27;33.19;100570.09;144156;615;132913;-69
2021/08/26 03:02:30;;;;;;;;;15.00;12.50;;;;;30.05;33.49;100571.69;144170;620;131020;-68
2021/08/26 03:05:04;;;;;;;;;17.25;14.25;;;;;30.16;33.30;100571.31;144145;652;132020;-68
2021/08/26 03:07:38;;;;;;;;;15.75;15.75;;;;;30.17;33.32;100569.47;144148;600;132012;-68
2021/08/26 03:10:12;;;;;;;;;12.25;12.25;;;;;30.24;33.34;100566.88;144153;651;132012;-68
2021/08/26 03:12:46;;;;;;;;;14.00;14.00;;;;;30.32;32.91;100565.00;144170;577;132010;-69
2021/08/26 03:15:20;;;;;;;;;14.50;12.00;;;;;30.38;33.02;100566.16;144150;591;132019;-67
2021/08/26 03:17:54;;;;;;;;;15.75;15.75;;;;;30.44;32.62;100565.50;144168;626;131022;-69
2021/08/26 03:20:28;;;;;;;;;14.00;14.00;;;;;30.40;31.94;100564.12;144150;603;132913;-69
2021/08/26 03:23:02;;;;;;;;;15.25;12.75;;;;;30.36;32.25;100568.22;144164;602;132012;-69
2021/08/26 03:25:36;;;;;;;;;15.50;15.50;;;;;30.13;32.22;100563.56;144158;581;133012;-69
2021/08/26 03:28:10;;;;;;;;;14.25;14.25;;;;;30.09;32.11;100556.81;144165;583;132010;-69
2021/08/26 03:30:44;;;;;;;;;17.50;17.00;;;;;30.08;32.08;100560.53;144143;569;132012;-68
2021/08/26 03:33:18;;;;;;;;;16.75;16.75;;;;;30.02;32.03;100561.22;144158;578;131020;-69
2021/08/26 03:35:52;;;;;;;;;10.25;8.00;;;;;30.00;32.25;100563.25;144148;581;132018;-68
2021/08/26 03:38:26;;;;;;;;;13.25;12.75;;;;;29.98;32.42;100562.59;144170;566;132010;-69
2021/08/26 03:41:00;;;;;;;;;17.00;14.75;;;;;29.97;32.78;100569.03;144145;603;132014;-69
2021/08/26 03:43:34;;;;;;;;;15.00;14.25;;;;;29.90;32.89;100570.75;144166;584;132013;-68
2021/08/26 03:46:08;;;;;;;;;13.25;13.25;;;;;29.87;32.95;100570.06;144145;643;132014;-69
2021/08/26 03:48:42;;;;;;;;;17.00;17.00;;;;;29.76;33.15;100566.84;144168;654;132010;-69
2021/08/26 03:51:16;;;;;;;;;17.00;16.00;;;;;29.64;33.43;100567.19;144162;589;131913;-68
2021/08/26 03:53:51;;;;;;;;;18.50;16.25;;;;;29.58;33.81;100558.91;144169;571;132010;-69
2021/08/26 03:56:25;;;;;;;;;15.75;15.75;;;;;29.59;33.75;100571.44;144149;569;132012;-69
2021/08/26 03:58:59;;;;;;;;;14.50;14.00;;;;;29.71;34.11;100561.94;144153;670;131021;-69
2021/08/26 04:01:33;;;;;;;;;18.00;15.25;;;;;29.81;33.77;100567.16;144153;663;132913;-70
2021/08/26 04:04:07;;;;;;;;;15.25;15.00;;;;;29.79;33.87;100561.94;144170;577;131049;-68
2021/08/26 04:06:41;;;;;;;;;12.75;12.75;;;;;29.67;33.90;100545.22;144144;572;132913;-69
2021/08/26 04:09:15;;;;;;;;;21.00;15.75;;;;;29.66;34.15;100551.66;144170;624;131022;-69
2021/08/26 04:11:49;;;;;;;;;20.00;15.50;;;;;29.84;33.95;100564.09;144146;599;133020;-72
2021/08/26 04:14:23;;;;;;;;;17.50;13.50;;;;;29.87;33.93;100561.94;144168;590;131021;-72
2021/08/26 04:16:57;;;;;;;;;16.00;16.00;;;;;29.98;33.33;100560.72;144163;563;132012;-72
2021/08/26 04:19:37;;;;;;;;;20.50;16.50;;;;;30.04;33.35;100551.94;144172;673;132012;-72
2021/08/26 04:22:11;;;;;;;;;15.50;15.00;;;;;30.04;33.21;100554.63;144145;612;133016;-72
2021/08/26 04:24:45;;;;;;;;;15.25;15.25;;;;;30.13;33.20;100566.25;144157;583;131020;-72
2021/08/26 04:27:19;;;;;;;;;16.25;15.50;;;;;30.12;33.37;100566.44;144140;588;132016;-68
2021/08/26 04:29:53;;;;;;;;;13.75;13.75;;;;;30.38;33.11;100568.87;144171;566;131021;-67
2021/08/26 04:32:27;;;;;;;;;15.75;14.75;;;;;30.56;32.85;100568.63;144150;640;132012;-68
2021/08/26 04:35:00;;;;;;;;;15.25;13.75;;;;;30.62;32.28;100569.78;144163;576;132011;-68
2021/08/26 04:37:34;;;;;;;;;21.50;19.00;;;;;30.57;32.18;100570.31;144148;569;132914;-67
2021/08/26 04:40:09;;;;;;;;;18.00;16.50;;;;;30.64;32.34;100573.16;144165;583;132012;-67
2021/08/26 04:42:43;;;;;;;;;18.50;16.50;;;;;30.74;32.58;100571.06;144161;566;132913;-67
2021/08/26 04:45:17;;;;;;;;;19.00;18.50;;;;;30.86;32.26;100574.22;144171;666;131020;-68
2021/08/26 04:47:51;;;;;;;;;13.00;13.00;;;;;30.92;32.36;100573.50;144145;617;132014;-68
2021/08/26 04:50:25;;;;;;;;;15.50;14.00;;;;;30.95;32.53;100575.00;144175;587;131011;-68
2021/08/26 04:52:59;;;;;;;;;17.50;15.50;;;;;30.93;32.57;100575.16;144176;581;131012;-67
2021/08/26 04:55:33;;;;;;;;;18.25;18.25;;;;;30.93;32.75;100577.06;144194;569;130020;-67
2021/08/26 04:58:07;;;;;;;;;20.50;17.75;;;;;30.83;32.54;100570.00;144174;592;131018;-69
2021/08/26 05:00:41;;;;;;;;;16.25;16.00;;;;;30.97;32.67;100568.38;144193;720;131010;-69
2021/08/26 05:03:15;;;;;;;;;18.75;17.00;;;;;30.98;32.94;100561.09;144171;691;131913;-68
2021/08/26 05:05:49;;;;;;;;;16.00;16.00;;;;;31.08;33.01;100555.47;144192;730;130031;-69
2021/08/26 05:08:23;;;;;;;;;15.75;14.75;;;;;30.82;33.94;100557.47;144187;584;130914;-68
2021/08/26 05:10:57;;;;;;;;;17.25;14.00;;;;;31.05;33.59;100545.81;144194;575;130020;-68
2021/08/26 05:13:31;;;;;;;;;18.25;18.25;;;;;31.06;33.76;100536.69;144178;591;131013;-69
2021/08/26 05:16:05;;;;;;;;;19.00;16.00;;;;;31.03;34.08;100534.34;144171;628;131010;-67
2021/08/26 05:18:39;;;;;;;;;17.25;16.25;;;;;31.27;34.24;100537.84;144175;566;131012;-67
2021/08/26 05:21:12;;;;;;;;;17.00;17.00;;;;;31.72;33.55;100550.47;144190;633;131013;-69
2021/08/26 05:23:46;;;;;;;;;16.00;15.25;;;;;32.05;33.70;100554.69;144179;566;130913;-69
2021/08/26 05:26:20;;;;;;;;;15.75;15.75;;;;;32.27;33.39;100549.37;144194;598;130020;-69
2021/08/26 05:28:54;;;;;;;;;16.25;16.25;;;;;32.45;32.99;100559.81;144171;591;131013;-69
2021/08/26 05:31:28;;;;;;;;;17.00;16.25;;;;;32.62;32.79;100569.44;144190;695;131010;-69
2021/08/26 05:34:03;;;;;;;;;14.00;13.75;;;;;32.78;32.63;100565.69;144187;612;131012;-70
2021/08/26 05:36:37;;;;;;;;;20.00;18.25;;;;;32.92;32.07;100560.34;144194;595;130021;-69
2021/08/26 05:39:10;;;;;;;;;18.75;18.75;;;;;33.05;31.63;100568.66;144173;623;130912;-68
2021/08/26 05:41:44;;;;;;;;;18.25;18.25;;;;;32.78;31.54;100565.69;144180;613;131012;-68
2021/08/26 05:44:20;;;;;;;;;23.00;22.00;;;;;32.99;31.47;100559.41;144174;606;131012;-67
2021/08/26 05:46:53;;;;;;;;;17.25;17.25;;;;;33.25;31.01;100557.16;144194;568;131010;-68
2021/08/26 05:49:27;;;;;;;;;19.00;19.00;;;;;33.24;31.12;100564.47;144154;589;132015;-68
2021/08/26 05:52:01;;;;;;;;;17.75;17.75;;;;;33.36;31.27;100556.63;144170;619;131022;-69
2021/08/26 05:54:35;;;;;;;;;19.00;17.25;;;;;33.61;31.28;100553.47;144154;614;131913;-68
2021/08/26 05:57:09;;;;;;;;;19.50;19.50;;;;;33.70;30.50;100555.00;144169;607;132010;-68
2021/08/26 05:59:43;;;;;;;;;20.50;19.00;;;;;33.73;30.55;100551.88;144161;593;132020;-68
2021/08/26 06:02:17;;;;;;;;;21.25;17.75;;;;;33.83;30.33;100556.97;144163;563;132012;-69
2021/08/26 06:04:51;;;;;;;;;20.75;18.25;;;;;33.93;30.16;100546.56;144149;576;132013;-69
2021/08/26 06:07:34;;;;;;;;;19.25;17.25;;;;;33.97;30.45;100556.03;144153;620;131020;-68
2021/08/26 06:10:10;;;;;;;;;16.50;16.00;;;;;33.60;31.06;100555.34;144151;582;131913;-68
2021/08/26 06:12:45;;;;;;;;;14.50;14.50;;;;;33.87;30.82;100547.38;144167;597;132010;-69
2021/08/26 06:15:19;;;;;;;;;16.00;16.00;;;;;33.33;32.41;100549.69;144150;576;132913;-68
2021/08/26 06:17:53;;;;;;;;;17.50;16.75;;;;;34.01;31.39;100545.53;144165;623;132020;-69
2021/08/26 06:20:27;;;;;;;;;19.75;16.50;;;;;34.30;30.92;100535.47;144147;726;132021;-70
2021/08/26 06:23:01;;;;;;;;;17.25;17.00;;;;;34.04;31.78;100534.28;144160;589;132020;-68
2021/08/26 06:25:35;;;;;;;;;17.00;17.00;;;;;34.37;31.50;100515.34;144157;588;132012;-69
2021/08/26 06:28:09;;;;;;;;;21.75;20.25;;;;;34.69;31.49;100528.44;144168;605;132012;-69
2021/08/26 06:30:43;;;;;;;;;20.75;18.50;;;;;34.87;31.17;100538.75;144148;575;132018;-68
2021/08/26 06:33:17;;;;;;;;;19.50;19.25;;;;;34.79;31.47;100538.94;144150;621;132012;-69
2021/08/26 06:35:51;;;;;;;;;20.50;20.50;;;;;34.38;33.41;100535.28;144150;663;132012;-68
2021/08/26 06:38:25;;;;;;;;;20.00;20.00;;;;;33.52;35.24;100537.28;144169;662;131020;-68
2021/08/26 06:40:59;;;;;;;;;19.00;17.00;;;;;33.52;35.21;100537.28;144141;564;132014;-68
2021/08/26 06:43:33;;;;;;;;;17.50;16.25;;;;;33.14;36.20;100539.47;144171;725;131020;-68
2021/08/26 06:46:07;;;;;;;;;16.25;16.25;;;;;33.78;35.07;100535.81;144154;609;131016;-68
2021/08/26 06:48:41;;;;;;;;;18.00;17.00;;;;;34.25;33.67;100538.75;144167;586;132020;-67
2021/08/26 06:51:15;;;;;;;;;14.00;14.00;;;;;34.45;32.84;100540.72;144163;705;132012;-69
2021/08/26 06:53:49;;;;;;;;;17.50;16.50;;;;;33.93;34.39;100540.28;144167;630;132010;-68
2021/08/26 06:56:23;;;;;;;;;16.25;14.50;;;;;34.91;32.87;100540.88;144150;591;132013;-68
2021/08/26 06:58:57;;;;;;;;;14.50;14.50;;;;;34.67;33.01;100547.72;144149;598;132012;-68
2021/08/26 07:01:30;;;;;;;;;16.75;16.25;;;;;34.92;32.69;100550.72;144146;599;132014;-68
2021/08/26 07:04:04;;;;;;;;;16.75;14.00;;;;;34.88;32.54;100552.19;144168;585;132010;-67
2021/08/26 07:06:38;;;;;;;;;19.00;17.75;;;;;35.07;32.47;100550.53;144152;613;132012;-67
2021/08/26 07:09:12;;;;;;;;;19.50;18.75;;;;;34.81;33.07;100545.87;144167;639;132010;-67
2021/08/26 07:11:46;;;;;;;;;16.75;15.00;;;;;34.95;32.79;100540.47;144153;565;132013;-67
2021/08/26 07:14:20;;;;;;;;;17.00;16.00;;;;;35.22;31.64;100541.31;144173;602;132012;-67
2021/08/26 07:16:54;;;;;;;;;15.00;15.00;;;;;34.84;32.83;100550.91;144156;624;132913;-69
2021/08/26 07:19:28;;;;;;;;;12.75;12.75;;;;;35.09;32.76;100553.06;144165;573;132012;-67
2021/08/26 07:22:02;;;;;;;;;16.50;16.50;;;;;35.33;31.69;100548.06;144155;582;131913;-68
2021/08/26 07:24:36;;;;;;;;;16.00;16.00;;;;;35.48;31.27;100540.47;144150;581;132012;-67
2021/08/26 07:27:10;;;;;;;;;17.25;17.25;;;;;34.28;33.67;100557.41;144150;565;132913;-67
2021/08/26 07:29:44;;;;;;;;;18.00;17.50;;;;;34.33;34.93;100552.22;144167;589;132012;-68
2021/08/26 07:32:18;;;;;;;;;16.25;16.25;;;;;34.38;35.18;100559.81;144146;800;132913;-67
2021/08/26 07:34:52;;;;;;;;;17.50;17.50;;;;;34.79;34.97;100558.00;144169;577;132012;-67
2021/08/26 07:37:26;;;;;;;;;19.00;19.00;;;;;33.06;38.15;100565.72;144148;565;132020;-67
2021/08/26 07:39:59;;;;;;;;;17.75;17.50;;;;;33.35;37.92;100571.25;144167;597;131021;-67
2021/08/26 07:42:33;;;;;;;;;15.25;15.25;;;;;32.62;39.42;100574.03;144161;571;132012;-68
2021/08/26 07:45:08;;;;;;;;;18.50;17.75;;;;;33.08;38.88;100562.84;144166;563;132012;-67
2021/08/26 07:47:42;;;;;;;;;18.50;18.50;;;;;33.01;38.88;100568.22;144145;574;132015;-67
2021/08/26 07:50:17;;;;;;;;;17.00;15.75;;;;;33.87;37.22;100561.84;144156;607;132010;-67
2021/08/26 07:52:51;;;;;;;;;17.00;17.00;;;;;33.94;35.26;100563.75;144146;625;132014;-67
2021/08/26 07:55:25;;;;;;;;;15.00;14.25;;;;;34.17;30.50;100561.56;144172;638;131029;-67
2021/08/26 07:57:58;;;;;;;;;16.25;14.25;;;;;35.27;29.53;100562.50;144147;581;132020;-67
2021/08/26 08:00:32;;;;;;;;;15.25;14.25;;;;;35.53;29.61;100562.53;144168;591;132010;-67
2021/08/26 08:03:07;;;;;;;;;11.25;10.00;;;;;34.68;34.13;100562.19;144149;660;132013;-67
2021/08/26 08:05:41;;;;;;;;;15.75;14.00;;;;;35.49;31.23;100544.91;144171;586;132010;-67
2021/08/26 08:08:15;;;;;;;;;14.75;14.75;;;;;35.51;28.33;100545.50;144160;590;132018;-67
2021/08/26 08:10:49;;;;;;;;;14.75;12.00;;;;;36.28;27.03;100546.78;144167;590;132012;-68
2021/08/26 08:13:22;;;;;;;;;17.75;16.75;;;;;35.39;27.35;100541.75;144149;597;132012;-67
2021/08/26 08:15:57;;;;;;;;;12.50;12.50;;;;;36.47;26.22;100558.72;144150;600;132012;-68
2021/08/26 08:18:30;;;;;;;;;12.25;12.25;;;;;36.15;26.15;100550.44;144150;585;131913;-67
2021/08/26 08:21:04;;;;;;;;;12.25;10.75;;;;;36.05;26.93;100550.91;144173;664;131020;-67
2021/08/26 08:23:38;;;;;;;;;10.75;10.75;;;;;35.87;26.46;100555.16;144143;569;132016;-68
2021/08/26 08:26:14;;;;;;;;;7.00;5.50;;;;;35.47;27.22;100548.87;144176;577;132010;-67
2021/08/26 08:28:48;;;;;;;;;14.25;13.25;;;;;34.80;28.98;100551.53;144147;679;132014;-67
2021/08/26 08:31:22;;;;;;;;;13.75;13.50;;;;;34.77;28.80;100551.94;144167;614;132012;-67
2021/08/26 08:33:56;;;;;;;;;14.50;12.75;;;;;34.52;29.80;100545.16;144160;616;132013;-68
2021/08/26 08:36:30;;;;;;;;;13.50;13.00;;;;;34.40;29.09;100544.09;144166;596;132012;-68
2021/08/26 08:39:04;;;;;;;;;14.75;13.25;;;;;34.06;28.83;100548.50;144149;630;132012;-68
2021/08/26 08:41:38;;;;;;;;;17.50;16.25;;;;;34.11;30.03;100540.59;144155;625;131021;-67
2021/08/26 08:44:14;;;;;;;;;13.00;12.75;;;;;34.78;28.15;100546.28;144155;675;132020;-68
2021/08/26 08:46:52;;;;;;;;;12.00;11.50;;;;;34.17;26.80;100549.81;144165;599;132012;-67
2021/08/26 08:49:26;;;;;;;;;11.75;11.75;;;;;34.18;27.46;100543.34;144146;593;132014;-68
2021/08/26 08:52:02;;;;;;;;;15.50;14.25;;;;;35.13;26.33;100548.03;144170;570;131020;-67
2021/08/26 08:54:36;;;;;;;;;15.00;13.75;;;;;36.61;24.46;100543.06;144150;604;134013;-68
2021/08/26 08:57:10;;;;;;;;;12.00;11.00;;;;;35.55;25.69;100543.22;144171;612;131020;-67
2021/08/26 08:59:44;;;;;;;;;11.75;11.75;;;;;35.80;24.50;100529.72;144161;613;132018;-68
2021/08/26 09:02:18;;;;;;;;;14.50;14.50;;;;;35.31;24.96;100540.06;144170;589;132012;-68
2021/08/26 09:05:22;;;;;;;;;17.25;13.50;;;;;35.34;24.63;100536.94;144148;633;132021;-68
2021/08/26 09:08:12;;;;;;;;;12.50;12.50;;;;;36.26;23.85;100527.88;144158;649;132012;-68
2021/08/26 09:10:46;;;;;;;;;14.00;14.00;;;;;36.45;23.93;100528.06;144148;573;132013;-68
2021/08/26 09:13:37;;;;;;;;;14.50;13.25;;;;;37.29;22.31;100525.16;144173;627;132010;-68
2021/08/26 09:16:11;;;;;;;;;16.75;16.75;;;;;36.16;23.38;100519.34;144146;626;132912;-67
2021/08/26 09:18:45;;;;;;;;;15.50;14.00;;;;;37.63;21.90;100517.47;144171;622;132010;-67
2021/08/26 09:21:22;;;;;;;;;11.00;11.00;;;;;37.77;21.75;100516.31;144156;633;132020;-67
2021/08/26 09:24:00;;;;;;;;;15.50;15.50;;;;;37.33;22.66;100510.84;144168;602;132012;-67
2021/08/26 09:26:34;;;;;;;;;11.00;11.00;;;;;37.40;22.18;100502.53;144160;597;131912;-66
2021/08/26 09:29:10;;;;;;;;;12.00;12.00;;;;;37.58;22.21;100501.72;144171;659;131020;-67
2021/08/26 09:31:46;;;;;;;;;15.75;15.75;;;;;36.81;22.48;100494.59;144150;618;132912;-67
2021/08/26 09:34:22;;;;;;;;;9.00;8.75;;;;;36.50;22.44;100500.88;144164;575;132012;-67
2021/08/26 09:36:59;;;;;;;;;15.00;13.75;;;;;37.36;21.44;100491.22;144145;662;132014;-66
2021/08/26 09:39:33;;;;;;;;;16.75;12.75;;;;;36.76;22.16;100495.25;144168;564;132011;-68
2021/08/26 09:42:08;;;;;;;;;16.75;16.00;;;;;37.03;22.54;100494.22;144147;570;132020;-68
2021/08/26 09:44:42;;;;;;;;;14.50;14.25;;;;;37.87;21.32;100491.09;144172;599;132010;-66
2021/08/26 09:47:16;;;;;;;;;13.75;13.75;;;;;37.66;21.51;100484.16;144147;579;132020;-67
2021/08/26 09:49:50;;;;;;;;;14.00;13.75;;;;;36.92;22.46;100485.69;144167;601;132012;-67
2021/08/26 09:52:24;;;;;;;;;16.00;15.25;;;;;37.35;22.08;100489.53;144159;644;132018;-66
2021/08/26 09:55:00;;;;;;;;;14.00;14.00;;;;;37.99;21.43;100488.41;144172;578;132012;-68
2021/08/26 09:57:37;;;;;;;;;15.50;15.50;;;;;37.88;21.10;100481.81;144150;573;132012;-67
2021/08/26 10:00:12;;;;;;;;;15.75;15.75;;;;;37.13;22.17;100480.87;144153;603;132010;-67
2021/08/26 10:02:52;;;;;;;;;11.00;11.00;;;;;38.64;20.41;100474.03;144149;564;132912;-67
2021/08/26 10:05:26;;;;;;;;;14.00;13.00;;;;;38.55;20.85;100467.19;144172;607;132012;-66
2021/08/26 10:08:04;;;;;;;;;16.50;16.50;;;;;38.46;20.83;100458.50;144144;600;132912;-67
2021/08/26 10:10:39;;;;;;;;;10.00;10.00;;;;;38.14;20.76;100458.72;144173;637;132010;-68
2021/08/26 10:13:16;;;;;;;;;13.00;13.00;;;;;37.76;21.07;100462.59;144148;563;131912;-67
2021/08/26 10:15:52;;;;;;;;;12.25;12.25;;;;;37.74;20.84;100461.94;144168;629;132012;-67
2021/08/26 10:18:27;;;;;;;;;12.75;11.75;;;;;37.55;21.40;100463.84;144156;572;132912;-66
2021/08/26 10:21:01;;;;;;;;;11.00;11.00;;;;;37.30;21.90;100455.69;144170;590;131027;-67
2021/08/26 10:23:35;;;;;;;;;13.50;12.75;;;;;37.47;21.68;100458.66;144152;566;132012;-66
2021/08/26 10:26:15;;;;;;;;;14.25;14.25;;;;;37.21;21.75;100450.50;144155;569;132010;-66
2021/08/26 10:28:51;;;;;;;;;14.25;14.25;;;;;37.04;21.99;100454.84;144151;635;132016;-67
2021/08/26 10:31:36;;;;;;;;;13.25;13.25;;;;;37.15;22.26;100456.03;144171;595;132011;-66
2021/08/26 10:34:36;;;;;;;;;13.75;12.25;;;;;37.18;22.93;100434.53;144148;599;132014;-67
2021/08/26 10:37:23;;;;;;;;;15.25;15.00;;;;;37.32;23.03;100445.34;144164;709;132012;-67
2021/08/26 10:39:57;;;;;;;;;14.75;14.00;;;;;37.47;23.20;100429.41;144154;635;132012;-66
2021/08/26 10:42:49;;;;;;;;;17.25;16.50;;;;;37.65;23.35;100441.44;144171;602;132010;-66
2021/08/26 10:45:30;;;;;;;;;16.00;15.50;;;;;37.79;22.57;100439.38;144160;634;132912;-67
2021/08/26 10:48:28;;;;;;;;;18.75;17.00;;;;;37.87;22.73;100444.53;144170;622;132010;-68
2021/08/26 10:51:20;;;;;;;;;17.50;14.75;;;;;37.67;22.66;100442.84;144147;569;132012;-66
2021/08/26 10:53:54;;;;;;;;;15.50;15.50;;;;;37.41;22.91;100435.78;144152;612;132011;-66
2021/08/26 10:56:38;;;;;;;;;14.50;14.50;;;;;37.12;22.93;100432.69;144144;599;132912;-67
2021/08/26 10:59:34;;;;;;;;;14.00;14.00;;;;;37.98;21.94;100431.97;144168;607;132012;-67
2021/08/26 11:02:27;;;;;;;;;15.50;15.00;;;;;37.70;21.23;100430.59;144149;626;132018;-66
2021/08/26 11:05:34;;;;;;;;;16.25;16.25;;;;;38.02;21.62;100424.97;144164;687;132010;-66
2021/08/26 11:08:34;;;;;;;;;13.00;12.00;;;;;38.30;20.25;100409.81;144154;564;132012;-66
2021/08/26 11:11:49;;;;;;;;;13.75;13.75;;;;;38.78;19.76;100408.03;144161;567;132031;-66
2021/08/26 11:14:33;;;;;;;;;15.75;13.75;;;;;38.84;19.46;100412.56;144164;640;132012;-66
2021/08/26 11:17:08;;;;;;;;;13.25;10.75;;;;;38.43;19.27;100412.38;144174;593;132010;-67
2021/08/26 11:19:42;;;;;;;;;15.25;13.50;;;;;39.08;18.58;100416.13;144150;594;132912;-66
2021/08/26 11:22:16;;;;;;;;;11.50;11.50;;;;;39.42;18.27;100411.72;144158;592;132010;-66
2021/08/26 11:24:54;;;;;;;;;14.25;13.00;;;;;39.39;17.16;100406.69;144157;597;131019;-66
2021/08/26 11:27:31;;;;;;;;;14.00;12.00;;;;;39.16;17.54;100415.78;144173;622;131020;-66
2021/08/26 11:30:26;;;;;;;;;15.50;14.00;;;;;38.97;17.79;100400.50;144146;628;132020;-68
2021/08/26 11:32:59;;;;;;;;;13.50;13.00;;;;;38.90;17.68;100406.94;144169;626;132010;-67
2021/08/26 11:35:35;;;;;;;;;15.25;15.25;;;;;38.74;17.27;100404.91;144152;660;132912;-67
2021/08/26 11:38:08;;;;;;;;;13.25;11.75;;;;;39.02;16.30;100389.66;144172;586;132010;-68
2021/08/26 11:40:42;;;;;;;;;14.25;13.50;;;;;38.75;16.44;100393.72;144159;596;132012;-67
2021/08/26 11:43:17;;;;;;;;;14.00;12.00;;;;;38.67;17.12;100387.72;144169;569;132010;-68